Home   Weather   Portugal   Porto   Past weeks
Flag for Portugal

Past Weather in Porto, Portugal — Yesterday and Last 2 Weeks

Currently: 55 °F. Sunny. (Weather station: Porto / Pedras Rubras, Portugal). See more current weather

Past Weather in Porto — Graph

°F

Porto Temperature Yesterday

Maximum temperature yesterday: 55 °F (at 4:00 pm)
Minimum temperature yesterday: 32 °F (at 8:00 am)
Average temperature yesterday: 43 °F

High & Low Weather Summary for the Past Weeks

 TemperatureHumidityPressure
High61 °F (Jan 21, 11:30 am)100% (Jan 16, 3:00 am)30.45 "Hg (Jan 16, 3:00 am)
Low32 °F (Jan 29, 8:00 am)36% (Jan 23, 3:00 pm)29.74 "Hg (Jan 17, 1:30 am)
Average48 °F79%30.22 "Hg
* Reported Jan 15 2:00 pm — Jan 30 2:30 pm, Porto. Weather by CustomWeather, © 2023

Note: Actual official high and low records may vary slightly from our data, if they occured in-between our weather recording intervals... More about our weather records

Porto Weather History for the Previous 24 Hours

Scroll right to see more
 ConditionsComfort  
Time TempWeatherWind HumidityBarometerVisibility
2:30 pm
Mon, Jan 30
54 °FPassing clouds.6 mph44%30.36 "HgN/A
2:00 pm54 °FPassing clouds.8 mph44%30.36 "HgN/A
1:30 pm54 °FSunny.9 mph41%30.39 "Hg10 mi
1:00 pm54 °FPassing clouds.8 mph44%30.39 "HgN/A
12:00 pm50 °FPassing clouds.9 mph50%30.42 "HgN/A
11:30 am48 °FSunny.14 mph54%30.42 "Hg10 mi
11:00 am48 °FSunny.13 mph54%30.42 "Hg10 mi
10:30 am46 °FSunny.15 mph53%30.42 "Hg10 mi
10:00 am45 °FSunny.12 mph61%30.42 "Hg10 mi
9:30 am43 °FPassing clouds.10 mph61%30.39 "HgN/A
9:00 am41 °FSunny.13 mph66%30.39 "Hg10 mi
8:30 am39 °FSunny.8 mph70%30.39 "Hg10 mi
8:00 am37 °FPassing clouds.8 mph70%30.39 "HgN/A
7:30 am39 °FClear.8 mph70%30.36 "Hg10 mi
7:00 am39 °FPassing clouds.6 mph70%30.36 "HgN/A
6:00 am39 °FClear.7 mph70%30.36 "Hg10 mi
5:30 am41 °FClear.8 mph66%30.36 "Hg10 mi
5:00 am41 °FClear.6 mph66%30.36 "Hg10 mi
4:30 am41 °FClear.6 mph66%30.36 "Hg10 mi
4:00 am41 °FClear.7 mph66%30.33 "Hg10 mi
3:30 am43 °FPassing clouds.6 mph61%30.33 "HgN/A
3:00 am43 °FClear.9 mph66%30.33 "Hg10 mi
2:30 am41 °FClear.9 mph76%30.36 "Hg10 mi
2:00 am43 °FClear.7 mph71%30.33 "Hg10 mi
1:30 am41 °FClear.8 mph76%30.33 "Hg10 mi
1:00 am39 °FClear.6 mph75%30.36 "Hg10 mi
11:30 pm
Sun, Jan 29
37 °FClear.7 mph87%30.33 "Hg10 mi
11:00 pm37 °FClear.No wind87%30.33 "Hg10 mi
10:00 pm39 °FPassing clouds.3 mph81%30.33 "HgN/A
9:30 pm41 °FClear.3 mph81%30.33 "Hg10 mi
9:00 pm41 °FPassing clouds.6 mph81%30.30 "HgN/A
8:30 pm41 °FPassing clouds.3 mph81%30.30 "HgN/A
8:00 pm43 °FClear.No wind76%30.30 "Hg10 mi
7:30 pm43 °FPassing clouds.3 mph76%30.30 "HgN/A
7:00 pm43 °FClear.No wind76%30.30 "Hg10 mi
6:00 pm48 °FClear.5 mph62%30.27 "Hg10 mi
5:30 pm50 °FSunny.7 mph58%30.27 "Hg10 mi
5:00 pm54 °FPassing clouds.6 mph44%30.27 "HgN/A
4:00 pm55 °FPassing clouds.7 mph41%30.24 "HgN/A
Weather by CustomWeather, © 2023

See weather overview